sensor_id;sensor_type;location;lat;lon;timestamp;pressure;altitude;pressure_sealevel;temperature;humidity
6615;BME280;3343;42.896;23.912;2022-10-04T00:02:20;96661.47;;;20.35;44.86
6615;BME280;3343;42.896;23.912;2022-10-04T00:04:52;96656.16;;;20.02;46.41
6615;BME280;3343;42.896;23.912;2022-10-04T00:07:25;96661.84;;;19.44;47.27
6615;BME280;3343;42.896;23.912;2022-10-04T00:09:56;96666.56;;;19.25;48.05
6615;BME280;3343;42.896;23.912;2022-10-04T00:12:26;96673.94;;;19.63;47.11
6615;BME280;3343;42.896;23.912;2022-10-04T00:14:57;96664.03;;;18.78;49.95
6615;BME280;3343;42.896;23.912;2022-10-04T00:17:28;96661.97;;;16.85;58.84
6615;BME280;3343;42.896;23.912;2022-10-04T00:19:57;96668.69;;;16.51;60.93
6615;BME280;3343;42.896;23.912;2022-10-04T00:22:26;96653.56;;;17.48;57.58
6615;BME280;3343;42.896;23.912;2022-10-04T00:28:26;96657.28;;;18.87;50.94
6615;BME280;3343;42.896;23.912;2022-10-04T00:31:12;96654.97;;;19.48;49.45
6615;BME280;3343;42.896;23.912;2022-10-04T00:33:41;96658.41;;;19.60;49.22
6615;BME280;3343;42.896;23.912;2022-10-04T00:36:36;96661.03;;;20.05;47.27
6615;BME280;3343;42.896;23.912;2022-10-04T00:39:15;96663.34;;;19.85;46.80
6615;BME280;3343;42.896;23.912;2022-10-04T00:42:01;96661.69;;;19.50;47.68
6615;BME280;3343;42.896;23.912;2022-10-04T00:44:37;96650.75;;;18.66;51.11
6615;BME280;3343;42.896;23.912;2022-10-04T00:47:15;96655.50;;;18.64;51.09
6615;BME280;3343;42.896;23.912;2022-10-04T00:49:48;96648.56;;;18.40;52.69
6615;BME280;3343;42.896;23.912;2022-10-04T00:52:19;96634.66;;;18.90;50.91
6615;BME280;3343;42.896;23.912;2022-10-04T00:54:51;96649.28;;;19.27;49.48
6615;BME280;3343;42.896;23.912;2022-10-04T00:57:23;96646.16;;;19.47;48.71
6615;BME280;3343;42.896;23.912;2022-10-04T00:59:54;96651.13;;;19.55;48.01
6615;BME280;3343;42.896;23.912;2022-10-04T01:02:27;96635.69;;;19.29;49.27
6615;BME280;3343;42.896;23.912;2022-10-04T01:04:58;96646.81;;;18.97;50.35
6615;BME280;3343;42.896;23.912;2022-10-04T01:07:28;96650.34;;;19.43;49.11
6615;BME280;3343;42.896;23.912;2022-10-04T01:10:00;96660.19;;;19.71;47.96
6615;BME280;3343;42.896;23.912;2022-10-04T01:12:39;96655.34;;;19.85;47.67
6615;BME280;3343;42.896;23.912;2022-10-04T01:15:12;96654.47;;;20.13;47.34
6615;BME280;3343;42.896;23.912;2022-10-04T01:17:40;96648.41;;;19.38;47.82
6615;BME280;3343;42.896;23.912;2022-10-04T01:23:08;96659.22;;;19.77;47.40
6615;BME280;3343;42.896;23.912;2022-10-04T01:25:43;96661.81;;;19.72;47.33
6615;BME280;3343;42.896;23.912;2022-10-04T01:28:11;96660.25;;;18.62;50.81
6615;BME280;3343;42.896;23.912;2022-10-04T01:30:38;96670.78;;;18.69;50.27
6615;BME280;3343;42.896;23.912;2022-10-04T01:33:05;96665.19;;;19.22;49.36
6615;BME280;3343;42.896;23.912;2022-10-04T01:35:33;96657.16;;;19.51;48.85
6615;BME280;3343;42.896;23.912;2022-10-04T01:38:02;96661.22;;;19.53;48.58
6615;BME280;3343;42.896;23.912;2022-10-04T01:40:33;96668.13;;;19.66;48.28
6615;BME280;3343;42.896;23.912;2022-10-04T01:43:04;96657.03;;;19.74;48.02
6615;BME280;3343;42.896;23.912;2022-10-04T01:45:36;96658.56;;;19.25;48.82
6615;BME280;3343;42.896;23.912;2022-10-04T01:48:08;96652.13;;;19.37;48.24
6615;BME280;3343;42.896;23.912;2022-10-04T01:50:38;96659.69;;;19.57;48.06
6615;BME280;3343;42.896;23.912;2022-10-04T01:53:14;96663.84;;;19.82;47.21
6615;BME280;3343;42.896;23.912;2022-10-04T01:55:49;96651.13;;;19.72;46.63
6615;BME280;3343;42.896;23.912;2022-10-04T01:58:18;96651.09;;;18.46;50.76
6615;BME280;3343;42.896;23.912;2022-10-04T02:00:50;96661.94;;;19.20;48.73
6615;BME280;3343;42.896;23.912;2022-10-04T02:03:20;96656.16;;;19.40;47.68
6615;BME280;3343;42.896;23.912;2022-10-04T02:05:51;96667.22;;;19.32;47.43
6615;BME280;3343;42.896;23.912;2022-10-04T02:08:25;96663.69;;;19.43;47.67
6615;BME280;3343;42.896;23.912;2022-10-04T02:10:54;96656.75;;;18.73;50.02
6615;BME280;3343;42.896;23.912;2022-10-04T02:13:23;96646.38;;;16.88;55.92
6615;BME280;3343;42.896;23.912;2022-10-04T02:15:55;96662.25;;;16.95;56.98
6615;BME280;3343;42.896;23.912;2022-10-04T02:18:24;96663.13;;;17.79;54.27
6615;BME280;3343;42.896;23.912;2022-10-04T02:20:52;96662.09;;;18.15;52.38
6615;BME280;3343;42.896;23.912;2022-10-04T02:23:22;96669.56;;;18.88;50.47
6615;BME280;3343;42.896;23.912;2022-10-04T02:25:50;96666.28;;;19.09;49.81
6615;BME280;3343;42.896;23.912;2022-10-04T02:28:19;96670.41;;;19.46;48.70
6615;BME280;3343;42.896;23.912;2022-10-04T02:30:48;96672.22;;;19.57;48.65
6615;BME280;3343;42.896;23.912;2022-10-04T02:33:30;96669.41;;;19.63;47.53
6615;BME280;3343;42.896;23.912;2022-10-04T02:35:57;96671.09;;;19.53;47.76
6615;BME280;3343;42.896;23.912;2022-10-04T02:38:28;96678.28;;;19.97;47.20
6615;BME280;3343;42.896;23.912;2022-10-04T02:40:59;96679.56;;;19.95;47.04
6615;BME280;3343;42.896;23.912;2022-10-04T02:43:34;96684.78;;;19.90;46.29
6615;BME280;3343;42.896;23.912;2022-10-04T02:46:07;96683.25;;;19.94;46.92
6615;BME280;3343;42.896;23.912;2022-10-04T02:48:44;96688.28;;;19.90;46.43
6615;BME280;3343;42.896;23.912;2022-10-04T02:51:18;96698.81;;;19.97;46.62
6615;BME280;3343;42.896;23.912;2022-10-04T02:53:56;96705.88;;;19.29;49.30
6615;BME280;3343;42.896;23.912;2022-10-04T02:56:25;96702.00;;;18.97;50.57
6615;BME280;3343;42.896;23.912;2022-10-04T02:58:54;96695.47;;;18.41;52.68
6615;BME280;3343;42.896;23.912;2022-10-04T03:01:34;96706.84;;;17.11;57.97
6615;BME280;3343;42.896;23.912;2022-10-04T03:04:02;96700.34;;;16.52;60.76
6615;BME280;3343;42.896;23.912;2022-10-04T03:06:30;96697.94;;;16.87;59.29
6615;BME280;3343;42.896;23.912;2022-10-04T03:09:01;96708.31;;;18.56;53.77
6615;BME280;3343;42.896;23.912;2022-10-04T03:11:32;96711.34;;;19.23;51.27
6615;BME280;3343;42.896;23.912;2022-10-04T03:14:05;96709.16;;;19.77;48.82
6615;BME280;3343;42.896;23.912;2022-10-04T03:16:35;96710.50;;;20.08;48.47
6615;BME280;3343;42.896;23.912;2022-10-04T03:19:04;96703.84;;;20.10;47.92
6615;BME280;3343;42.896;23.912;2022-10-04T03:21:32;96710.84;;;19.83;47.01
6615;BME280;3343;42.896;23.912;2022-10-04T03:24:00;96714.34;;;19.26;49.05
6615;BME280;3343;42.896;23.912;2022-10-04T03:26:33;96707.16;;;18.52;51.33
6615;BME280;3343;42.896;23.912;2022-10-04T03:29:06;96719.34;;;18.36;52.22
6615;BME280;3343;42.896;23.912;2022-10-04T03:31:38;96706.53;;;18.96;51.09
6615;BME280;3343;42.896;23.912;2022-10-04T03:34:12;96706.09;;;19.28;49.10
6615;BME280;3343;42.896;23.912;2022-10-04T03:36:41;96713.41;;;19.32;49.75
6615;BME280;3343;42.896;23.912;2022-10-04T03:39:10;96707.78;;;19.74;48.58
6615;BME280;3343;42.896;23.912;2022-10-04T03:41:38;96713.69;;;19.93;47.89
6615;BME280;3343;42.896;23.912;2022-10-04T03:44:13;96714.03;;;19.96;46.92
6615;BME280;3343;42.896;23.912;2022-10-04T03:46:42;96714.72;;;19.75;48.15
6615;BME280;3343;42.896;23.912;2022-10-04T03:49:11;96723.34;;;20.11;47.63
6615;BME280;3343;42.896;23.912;2022-10-04T03:51:44;96722.88;;;20.30;47.15
6615;BME280;3343;42.896;23.912;2022-10-04T03:54:16;96717.03;;;20.33;46.63
6615;BME280;3343;42.896;23.912;2022-10-04T03:56:44;96719.56;;;20.07;46.60
6615;BME280;3343;42.896;23.912;2022-10-04T03:59:16;96719.72;;;20.17;46.88
6615;BME280;3343;42.896;23.912;2022-10-04T04:01:46;96720.50;;;19.84;47.53
6615;BME280;3343;42.896;23.912;2022-10-04T04:04:20;96725.59;;;20.35;46.42
6615;BME280;3343;42.896;23.912;2022-10-04T04:06:57;96717.78;;;20.46;46.45
6615;BME280;3343;42.896;23.912;2022-10-04T04:09:36;96731.00;;;20.74;45.61
6615;BME280;3343;42.896;23.912;2022-10-04T04:12:10;96718.53;;;20.63;45.86
6615;BME280;3343;42.896;23.912;2022-10-04T04:14:41;96737.69;;;20.55;46.75
6615;BME280;3343;42.896;23.912;2022-10-04T04:17:33;96738.69;;;20.87;45.56
6615;BME280;3343;42.896;23.912;2022-10-04T04:20:04;96731.38;;;20.44;46.12
6615;BME280;3343;42.896;23.912;2022-10-04T04:22:34;96733.97;;;20.39;46.91
6615;BME280;3343;42.896;23.912;2022-10-04T04:25:07;96729.81;;;20.31;46.69
6615;BME280;3343;42.896;23.912;2022-10-04T04:27:37;96726.44;;;19.57;49.32
6615;BME280;3343;42.896;23.912;2022-10-04T04:30:07;96734.44;;;20.02;48.39
6615;BME280;3343;42.896;23.912;2022-10-04T04:32:44;96736.47;;;20.12;48.13
6615;BME280;3343;42.896;23.912;2022-10-04T04:35:21;96738.25;;;20.07;48.52
6615;BME280;3343;42.896;23.912;2022-10-04T04:38:02;96734.28;;;19.35;50.65
6615;BME280;3343;42.896;23.912;2022-10-04T04:40:29;96736.03;;;18.66;54.00
6615;BME280;3343;42.896;23.912;2022-10-04T04:42:58;96744.31;;;19.45;51.32
6615;BME280;3343;42.896;23.912;2022-10-04T04:45:29;96746.91;;;19.97;49.90
6615;BME280;3343;42.896;23.912;2022-10-04T04:47:57;96744.97;;;18.72;53.19
6615;BME280;3343;42.896;23.912;2022-10-04T04:50:28;96754.03;;;19.63;51.39
6615;BME280;3343;42.896;23.912;2022-10-04T04:52:59;96751.38;;;20.08;49.71
6615;BME280;3343;42.896;23.912;2022-10-04T04:55:31;96759.22;;;20.31;48.74
6615;BME280;3343;42.896;23.912;2022-10-04T04:57:59;96750.00;;;19.49;50.01
6615;BME280;3343;42.896;23.912;2022-10-04T05:00:30;96765.00;;;20.57;48.46
6615;BME280;3343;42.896;23.912;2022-10-04T05:02:59;96741.56;;;20.64;48.13
6615;BME280;3343;42.896;23.912;2022-10-04T05:05:28;96764.16;;;20.06;48.75
6615;BME280;3343;42.896;23.912;2022-10-04T05:08:12;96765.94;;;20.17;48.73
6615;BME280;3343;42.896;23.912;2022-10-04T05:10:42;96767.19;;;20.43;48.69
6615;BME280;3343;42.896;23.912;2022-10-04T05:13:12;96783.72;;;20.57;47.69
6615;BME280;3343;42.896;23.912;2022-10-04T05:15:42;96777.88;;;20.60;46.81
6615;BME280;3343;42.896;23.912;2022-10-04T05:18:18;96779.19;;;20.41;47.66
6615;BME280;3343;42.896;23.912;2022-10-04T05:20:49;96776.38;;;20.02;48.96
6615;BME280;3343;42.896;23.912;2022-10-04T05:23:17;96773.56;;;19.12;50.79
6615;BME280;3343;42.896;23.912;2022-10-04T05:25:45;96772.56;;;19.98;49.69
6615;BME280;3343;42.896;23.912;2022-10-04T05:28:13;96774.69;;;20.29;48.34
6615;BME280;3343;42.896;23.912;2022-10-04T05:30:48;96786.22;;;20.63;47.65
6615;BME280;3343;42.896;23.912;2022-10-04T05:33:21;96785.38;;;21.18;46.68
6615;BME280;3343;42.896;23.912;2022-10-04T05:36:21;96782.97;;;22.41;42.97
6615;BME280;3343;42.896;23.912;2022-10-04T05:38:54;96790.19;;;23.67;40.29
6615;BME280;3343;42.896;23.912;2022-10-04T05:41:31;96798.09;;;25.01;37.62
6615;BME280;3343;42.896;23.912;2022-10-04T05:44:18;96803.03;;;25.58;35.66
6615;BME280;3343;42.896;23.912;2022-10-04T05:46:51;96803.09;;;25.48;35.70
6615;BME280;3343;42.896;23.912;2022-10-04T05:49:19;96806.94;;;25.91;35.34
6615;BME280;3343;42.896;23.912;2022-10-04T05:51:49;96804.19;;;26.46;34.07
6615;BME280;3343;42.896;23.912;2022-10-04T05:54:18;96813.53;;;26.58;33.11
6615;BME280;3343;42.896;23.912;2022-10-04T05:56:59;96813.34;;;26.79;32.73
6615;BME280;3343;42.896;23.912;2022-10-04T05:59:46;96823.06;;;27.14;31.34
6615;BME280;3343;42.896;23.912;2022-10-04T06:02:26;96833.00;;;26.89;31.28
6615;BME280;3343;42.896;23.912;2022-10-04T06:05:08;96834.31;;;26.19;31.00
6615;BME280;3343;42.896;23.912;2022-10-04T06:07:39;96833.72;;;25.78;32.42
6615;BME280;3343;42.896;23.912;2022-10-04T06:13:21;96831.50;;;24.29;32.90
6615;BME280;3343;42.896;23.912;2022-10-04T06:16:05;96833.41;;;23.61;34.46
6615;BME280;3343;42.896;23.912;2022-10-04T06:18:47;96830.16;;;23.06;34.92
6615;BME280;3343;42.896;23.912;2022-10-04T06:21:21;96836.56;;;22.36;36.32
6615;BME280;3343;42.896;23.912;2022-10-04T06:23:59;96840.94;;;23.59;35.65
6615;BME280;3343;42.896;23.912;2022-10-04T06:26:33;96847.78;;;23.97;34.80
6615;BME280;3343;42.896;23.912;2022-10-04T06:29:07;96853.56;;;24.76;35.68
6615;BME280;3343;42.896;23.912;2022-10-04T06:34:52;96877.50;;;26.14;33.54
6615;BME280;3343;42.896;23.912;2022-10-04T06:37:44;96877.00;;;26.07;32.75
6615;BME280;3343;42.896;23.912;2022-10-04T06:40:30;96876.09;;;25.52;34.45
6615;BME280;3343;42.896;23.912;2022-10-04T06:46:00;96865.81;;;25.69;31.95
6615;BME280;3343;42.896;23.912;2022-10-04T06:55:04;96885.78;;;28.87;28.19
6615;BME280;3343;42.896;23.912;2022-10-04T06:57:52;96891.63;;;28.56;27.64
6615;BME280;3343;42.896;23.912;2022-10-04T07:00:25;96897.84;;;28.38;28.34
6615;BME280;3343;42.896;23.912;2022-10-04T07:02:57;96896.69;;;28.63;28.44
6615;BME280;3343;42.896;23.912;2022-10-04T07:05:30;96893.44;;;28.61;27.58
6615;BME280;3343;42.896;23.912;2022-10-04T07:08:06;96901.13;;;29.24;28.04
6615;BME280;3343;42.896;23.912;2022-10-04T07:10:44;96897.94;;;29.82;26.35
6615;BME280;3343;42.896;23.912;2022-10-04T07:13:21;96902.03;;;30.92;25.17
6615;BME280;3343;42.896;23.912;2022-10-04T07:15:57;96899.75;;;30.86;25.13
6615;BME280;3343;42.896;23.912;2022-10-04T07:18:29;96885.63;;;30.75;25.55
6615;BME280;3343;42.896;23.912;2022-10-04T07:21:04;96907.59;;;30.51;25.78
6615;BME280;3343;42.896;23.912;2022-10-04T07:23:38;96904.81;;;30.42;26.06
6615;BME280;3343;42.896;23.912;2022-10-04T07:26:17;96907.94;;;30.22;25.22
6615;BME280;3343;42.896;23.912;2022-10-04T07:28:46;96899.94;;;29.90;26.06
6615;BME280;3343;42.896;23.912;2022-10-04T07:31:33;96912.09;;;30.20;26.49
6615;BME280;3343;42.896;23.912;2022-10-04T07:34:08;96908.97;;;29.99;25.61
6615;BME280;3343;42.896;23.912;2022-10-04T07:36:44;96913.47;;;29.16;26.39
6615;BME280;3343;42.896;23.912;2022-10-04T07:39:15;96900.00;;;27.45;27.18
6615;BME280;3343;42.896;23.912;2022-10-04T07:41:47;96899.19;;;27.21;28.65
6615;BME280;3343;42.896;23.912;2022-10-04T07:44:23;96909.38;;;26.56;30.19
6615;BME280;3343;42.896;23.912;2022-10-04T07:46:55;96906.28;;;26.73;29.87
6615;BME280;3343;42.896;23.912;2022-10-04T07:49:25;96915.59;;;25.97;30.44
6615;BME280;3343;42.896;23.912;2022-10-04T07:52:14;96905.81;;;25.21;30.83
6615;BME280;3343;42.896;23.912;2022-10-04T07:54:50;96908.47;;;24.60;31.33
6615;BME280;3343;42.896;23.912;2022-10-04T07:57:23;96911.19;;;25.11;32.19
6615;BME280;3343;42.896;23.912;2022-10-04T07:59:56;96920.81;;;25.58;31.37
6615;BME280;3343;42.896;23.912;2022-10-04T08:02:37;96921.66;;;25.43;30.65
6615;BME280;3343;42.896;23.912;2022-10-04T08:05:15;96922.13;;;25.81;30.64
6615;BME280;3343;42.896;23.912;2022-10-04T08:07:54;96917.34;;;24.91;31.39
6615;BME280;3343;42.896;23.912;2022-10-04T08:10:31;96924.66;;;25.31;31.57
6615;BME280;3343;42.896;23.912;2022-10-04T08:13:05;96925.47;;;25.22;30.78
6615;BME280;3343;42.896;23.912;2022-10-04T08:15:41;96925.16;;;25.44;31.24
6615;BME280;3343;42.896;23.912;2022-10-04T08:18:19;96929.31;;;26.11;31.09
6615;BME280;3343;42.896;23.912;2022-10-04T08:20:53;96924.91;;;24.74;31.47
6615;BME280;3343;42.896;23.912;2022-10-04T08:26:38;96926.13;;;26.53;29.51
6615;BME280;3343;42.896;23.912;2022-10-04T08:29:22;96916.63;;;26.60;29.29
6615;BME280;3343;42.896;23.912;2022-10-04T08:32:25;96908.56;;;26.55;30.05
6615;BME280;3343;42.896;23.912;2022-10-04T08:35:14;96924.25;;;26.53;30.41
6615;BME280;3343;42.896;23.912;2022-10-04T08:38:07;96922.28;;;26.15;30.10
6615;BME280;3343;42.896;23.912;2022-10-04T08:41:23;96923.97;;;25.95;29.87
6615;BME280;3343;42.896;23.912;2022-10-04T08:47:20;96918.53;;;26.06;30.20
6615;BME280;3343;42.896;23.912;2022-10-04T08:53:16;96926.53;;;26.75;30.21
6615;BME280;3343;42.896;23.912;2022-10-04T08:55:59;96919.19;;;26.81;30.47
6615;BME280;3343;42.896;23.912;2022-10-04T08:58:55;96936.38;;;27.00;29.87
6615;BME280;3343;42.896;23.912;2022-10-04T09:01:49;96944.56;;;26.80;29.16
6615;BME280;3343;42.896;23.912;2022-10-04T09:04:43;96932.25;;;26.69;29.11
6615;BME280;3343;42.896;23.912;2022-10-04T09:07:59;96934.69;;;26.16;30.43
6615;BME280;3343;42.896;23.912;2022-10-04T09:10:38;96932.34;;;26.53;30.16
6615;BME280;3343;42.896;23.912;2022-10-04T09:13:28;96936.09;;;26.96;28.77
6615;BME280;3343;42.896;23.912;2022-10-04T09:16:07;96929.78;;;27.69;29.52
6615;BME280;3343;42.896;23.912;2022-10-04T09:18:51;96932.56;;;28.12;28.99
6615;BME280;3343;42.896;23.912;2022-10-04T09:21:42;96939.63;;;27.31;28.06
6615;BME280;3343;42.896;23.912;2022-10-04T09:24:57;96938.09;;;25.52;30.30
6615;BME280;3343;42.896;23.912;2022-10-04T09:27:41;96947.00;;;25.47;31.04
6615;BME280;3343;42.896;23.912;2022-10-04T09:30:16;96941.31;;;25.54;30.74
6615;BME280;3343;42.896;23.912;2022-10-04T09:36:08;96952.44;;;26.76;30.17
6615;BME280;3343;42.896;23.912;2022-10-04T09:39:07;96954.94;;;26.62;30.58
6615;BME280;3343;42.896;23.912;2022-10-04T09:42:08;96958.06;;;26.41;30.04
6615;BME280;3343;42.896;23.912;2022-10-04T09:47:55;96953.97;;;25.63;29.82
6615;BME280;3343;42.896;23.912;2022-10-04T09:50:58;96955.00;;;25.83;30.41
6615;BME280;3343;42.896;23.912;2022-10-04T09:53:39;96954.94;;;26.13;30.26
6615;BME280;3343;42.896;23.912;2022-10-04T09:56:43;96960.00;;;26.74;29.94
6615;BME280;3343;42.896;23.912;2022-10-04T09:59:29;96953.44;;;25.61;30.59
6615;BME280;3343;42.896;23.912;2022-10-04T10:05:29;96953.31;;;26.12;30.92
6615;BME280;3343;42.896;23.912;2022-10-04T10:08:09;96947.81;;;25.07;32.35
6615;BME280;3343;42.896;23.912;2022-10-04T10:10:46;96947.22;;;25.61;30.84
6615;BME280;3343;42.896;23.912;2022-10-04T10:14:16;96948.72;;;26.67;30.00
6615;BME280;3343;42.896;23.912;2022-10-04T10:16:55;96958.28;;;27.56;28.89
6615;BME280;3343;42.896;23.912;2022-10-04T10:19:47;96947.81;;;28.27;27.62
6615;BME280;3343;42.896;23.912;2022-10-04T10:22:52;96960.84;;;28.43;27.02
6615;BME280;3343;42.896;23.912;2022-10-04T10:25:38;96960.56;;;28.45;27.85
6615;BME280;3343;42.896;23.912;2022-10-04T10:28:28;96956.63;;;27.32;29.25
6615;BME280;3343;42.896;23.912;2022-10-04T10:31:20;96960.75;;;25.40;29.66
6615;BME280;3343;42.896;23.912;2022-10-04T10:34:10;96952.88;;;24.68;31.71
6615;BME280;3343;42.896;23.912;2022-10-04T10:36:55;96954.19;;;24.50;32.81
6615;BME280;3343;42.896;23.912;2022-10-04T10:39:42;96951.81;;;25.55;31.18
6615;BME280;3343;42.896;23.912;2022-10-04T10:42:36;96951.50;;;25.87;30.15
6615;BME280;3343;42.896;23.912;2022-10-04T10:45:25;96953.25;;;26.27;29.59
6615;BME280;3343;42.896;23.912;2022-10-04T10:48:05;96953.47;;;26.41;29.32
6615;BME280;3343;42.896;23.912;2022-10-04T10:50:59;96946.91;;;26.96;28.96
6615;BME280;3343;42.896;23.912;2022-10-04T10:56:45;96948.31;;;26.89;28.38
6615;BME280;3343;42.896;23.912;2022-10-04T11:05:50;96952.81;;;26.59;29.13
6615;BME280;3343;42.896;23.912;2022-10-04T11:12:10;96953.50;;;27.19;27.83
6615;BME280;3343;42.896;23.912;2022-10-04T11:15:02;96955.50;;;26.59;28.07
6615;BME280;3343;42.896;23.912;2022-10-04T11:20:56;96953.59;;;27.38;28.35
6615;BME280;3343;42.896;23.912;2022-10-04T11:27:19;96942.97;;;28.23;27.16
6615;BME280;3343;42.896;23.912;2022-10-04T11:30:15;96944.47;;;28.53;26.60
6615;BME280;3343;42.896;23.912;2022-10-04T11:33:27;96946.53;;;29.32;25.48
6615;BME280;3343;42.896;23.912;2022-10-04T11:36:16;96939.59;;;29.58;26.23
6615;BME280;3343;42.896;23.912;2022-10-04T11:39:01;96948.66;;;29.81;25.76
6615;BME280;3343;42.896;23.912;2022-10-04T11:41:44;96952.72;;;30.11;26.40
6615;BME280;3343;42.896;23.912;2022-10-04T11:44:35;96942.84;;;30.15;24.88
6615;BME280;3343;42.896;23.912;2022-10-04T11:47:16;96950.97;;;29.74;24.62
6615;BME280;3343;42.896;23.912;2022-10-04T11:49:58;96948.22;;;29.28;25.97
6615;BME280;3343;42.896;23.912;2022-10-04T11:52:47;96945.03;;;29.58;25.58
6615;BME280;3343;42.896;23.912;2022-10-04T11:55:45;96950.78;;;30.25;24.44
6615;BME280;3343;42.896;23.912;2022-10-04T11:58:26;96951.41;;;30.22;24.80
6615;BME280;3343;42.896;23.912;2022-10-04T12:04:27;96939.63;;;28.50;26.40
6615;BME280;3343;42.896;23.912;2022-10-04T12:07:18;96939.03;;;28.35;26.91
6615;BME280;3343;42.896;23.912;2022-10-04T12:09:59;96945.56;;;28.52;26.50
6615;BME280;3343;42.896;23.912;2022-10-04T12:12:43;96952.31;;;27.59;27.63
6615;BME280;3343;42.896;23.912;2022-10-04T12:15:43;96943.44;;;27.25;27.50
6615;BME280;3343;42.896;23.912;2022-10-04T12:21:40;96953.06;;;25.98;29.25
6615;BME280;3343;42.896;23.912;2022-10-04T12:24:41;96948.38;;;26.34;29.58
6615;BME280;3343;42.896;23.912;2022-10-04T12:27:35;96954.66;;;26.10;28.85
6615;BME280;3343;42.896;23.912;2022-10-04T12:30:20;96953.59;;;26.00;29.47
6615;BME280;3343;42.896;23.912;2022-10-04T12:32:58;96951.41;;;26.18;29.60
6615;BME280;3343;42.896;23.912;2022-10-04T12:35:38;96954.69;;;26.64;28.78
6615;BME280;3343;42.896;23.912;2022-10-04T12:38:20;96953.84;;;26.69;28.71
6615;BME280;3343;42.896;23.912;2022-10-04T12:40:54;96951.88;;;26.30;29.55
6615;BME280;3343;42.896;23.912;2022-10-04T12:43:38;96948.16;;;26.70;28.51
6615;BME280;3343;42.896;23.912;2022-10-04T12:46:19;96948.09;;;27.48;28.21
6615;BME280;3343;42.896;23.912;2022-10-04T12:48:58;96950.97;;;27.57;27.25
6615;BME280;3343;42.896;23.912;2022-10-04T12:51:38;96950.75;;;26.85;28.00
6615;BME280;3343;42.896;23.912;2022-10-04T12:54:18;96949.34;;;26.54;28.71
6615;BME280;3343;42.896;23.912;2022-10-04T12:56:55;96949.88;;;27.00;27.52
6615;BME280;3343;42.896;23.912;2022-10-04T12:59:46;96946.81;;;27.70;26.72
6615;BME280;3343;42.896;23.912;2022-10-04T13:02:52;96939.03;;;27.05;27.48
6615;BME280;3343;42.896;23.912;2022-10-04T13:05:30;96941.84;;;27.24;27.81
6615;BME280;3343;42.896;23.912;2022-10-04T13:08:06;96940.78;;;27.49;27.39
6615;BME280;3343;42.896;23.912;2022-10-04T13:10:57;96954.25;;;26.91;27.46
6615;BME280;3343;42.896;23.912;2022-10-04T13:16:36;96938.78;;;27.88;26.60
6615;BME280;3343;42.896;23.912;2022-10-04T13:19:13;96944.75;;;28.52;26.71
6615;BME280;3343;42.896;23.912;2022-10-04T13:24:38;96952.88;;;26.49;29.46
6615;BME280;3343;42.896;23.912;2022-10-04T13:27:33;96952.41;;;26.81;31.02
6615;BME280;3343;42.896;23.912;2022-10-04T13:30:12;96951.22;;;26.53;30.83
6615;BME280;3343;42.896;23.912;2022-10-04T13:32:48;96952.00;;;25.94;31.05
6615;BME280;3343;42.896;23.912;2022-10-04T13:35:22;96959.63;;;25.72;31.58
6615;BME280;3343;42.896;23.912;2022-10-04T13:38:11;96954.31;;;26.26;31.84
6615;BME280;3343;42.896;23.912;2022-10-04T13:40:54;96959.59;;;25.82;33.25
6615;BME280;3343;42.896;23.912;2022-10-04T13:46:37;96954.50;;;24.94;33.60
6615;BME280;3343;42.896;23.912;2022-10-04T13:49:28;96955.38;;;25.35;33.44
6615;BME280;3343;42.896;23.912;2022-10-04T13:52:06;96966.13;;;25.46;34.01
6615;BME280;3343;42.896;23.912;2022-10-04T13:54:57;96955.88;;;23.99;36.38
6615;BME280;3343;42.896;23.912;2022-10-04T13:57:48;96968.22;;;24.62;36.25
6615;BME280;3343;42.896;23.912;2022-10-04T14:00:26;96962.03;;;24.62;36.08
6615;BME280;3343;42.896;23.912;2022-10-04T14:03:19;96968.03;;;25.40;34.32
6615;BME280;3343;42.896;23.912;2022-10-04T14:06:16;96978.50;;;25.52;33.55
6615;BME280;3343;42.896;23.912;2022-10-04T14:12:10;96980.69;;;25.45;34.03
6615;BME280;3343;42.896;23.912;2022-10-04T14:15:21;96993.75;;;26.17;32.83
6615;BME280;3343;42.896;23.912;2022-10-04T14:18:03;96987.47;;;26.32;33.05
6615;BME280;3343;42.896;23.912;2022-10-04T14:21:15;96985.44;;;25.93;32.37
6615;BME280;3343;42.896;23.912;2022-10-04T14:30:15;96994.63;;;25.87;33.55
6615;BME280;3343;42.896;23.912;2022-10-04T14:33:08;97001.66;;;25.83;35.11
6615;BME280;3343;42.896;23.912;2022-10-04T14:35:46;96999.16;;;24.55;38.38
6615;BME280;3343;42.896;23.912;2022-10-04T14:38:33;96991.25;;;24.28;39.29
6615;BME280;3343;42.896;23.912;2022-10-04T14:44:27;97001.56;;;24.56;38.85
6615;BME280;3343;42.896;23.912;2022-10-04T14:47:10;96997.13;;;25.48;37.50
6615;BME280;3343;42.896;23.912;2022-10-04T14:50:01;97011.38;;;25.74;36.94
6615;BME280;3343;42.896;23.912;2022-10-04T14:52:41;96998.97;;;25.83;36.04
6615;BME280;3343;42.896;23.912;2022-10-04T14:55:28;97003.03;;;25.55;34.58
6615;BME280;3343;42.896;23.912;2022-10-04T14:58:11;97005.47;;;25.72;35.63
6615;BME280;3343;42.896;23.912;2022-10-04T15:00:54;97009.00;;;24.29;38.50
6615;BME280;3343;42.896;23.912;2022-10-04T15:03:36;97008.00;;;24.50;38.65
6615;BME280;3343;42.896;23.912;2022-10-04T15:06:23;97013.97;;;24.67;38.23
6615;BME280;3343;42.896;23.912;2022-10-04T15:12:38;97014.09;;;25.28;37.31
6615;BME280;3343;42.896;23.912;2022-10-04T15:15:34;97021.06;;;24.99;37.80
6615;BME280;3343;42.896;23.912;2022-10-04T15:18:20;97032.34;;;24.96;38.12
6615;BME280;3343;42.896;23.912;2022-10-04T15:20:54;97021.03;;;24.21;40.27
6615;BME280;3343;42.896;23.912;2022-10-04T15:23:31;97022.06;;;24.72;39.03
6615;BME280;3343;42.896;23.912;2022-10-04T15:26:05;97033.09;;;24.66;39.01
6615;BME280;3343;42.896;23.912;2022-10-04T15:28:54;97033.88;;;24.66;38.29
6615;BME280;3343;42.896;23.912;2022-10-04T15:31:31;97032.25;;;24.60;38.84
6615;BME280;3343;42.896;23.912;2022-10-04T15:34:04;97035.78;;;24.71;38.68
6615;BME280;3343;42.896;23.912;2022-10-04T15:37:02;97047.44;;;25.02;38.21
6615;BME280;3343;42.896;23.912;2022-10-04T15:39:59;97044.00;;;25.47;37.66
6615;BME280;3343;42.896;23.912;2022-10-04T15:42:32;97055.03;;;25.20;39.69
6615;BME280;3343;42.896;23.912;2022-10-04T15:45:24;97055.06;;;25.40;39.60
6615;BME280;3343;42.896;23.912;2022-10-04T15:48:06;97043.47;;;25.55;38.73